Terminal Aerodrome Forecast
Issued by NWS

Home | Current Version | Previous Version | Graphics & Text | Print | Product List | Glossary On
Versions: 1 2 3 4 5 6 7 8 9 10 11 12 13 14 15 16 17 18
000
FTUS43 KBIS 220533
TAFJMS
TAF
KJMS 220533Z 2206/2306 11008KT P6SM FEW250
     FM221100 14012G20KT P6SM BKN100
     FM221500 15018G28KT P6SM OVC050
     FM230500 16014KT P6SM SCT200=

USA.gov is the U.S. government's official web portal to all federal, state and local government web resources and services.